Time;durP1;ratioP1;P1;durP2;ratioP2;P2;SDS_P1;SDS_P2;PMS_P1;PMS_P2;Temp;Humidity;BMP_temperature;BMP_pressure;BME280_temperature;BME280_humidity;BME280_pressure;Samples;Min_cycle;Max_cycle;Signal;HPM_P1;HPM_P2
2021/12/01 00:00:09;;;;;;;8.27;4.93;;;;;;;;;;5053743;28;20439;-56
2021/12/01 00:02:35;;;;;;;10.57;7.10;;;;;;;;;;5053803;28;20443;-60
2021/12/01 00:05:01;;;;;;;14.40;5.80;;;;;;;;;;5053814;28;20414;-56
2021/12/01 00:07:27;;;;;;;10.00;5.27;;;;;;;;;;5053951;28;20461;-57
2021/12/01 00:09:53;;;;;;;9.33;4.90;;;;;;;;;;5052482;28;20420;-57
2021/12/01 00:12:20;;;;;;;7.67;4.73;;;;;;;;;;5053708;28;20404;-59
2021/12/01 00:14:46;;;;;;;4.90;4.50;;;;;;;;;;5052337;28;20983;-58
2021/12/01 00:17:12;;;;;;;12.00;4.90;;;;;;;;;;5053145;28;20450;-58
2021/12/01 00:19:39;;;;;;;9.53;6.17;;;;;;;;;;5052776;28;20805;-56
2021/12/01 00:22:05;;;;;;;4.60;4.20;;;;;;;;;;5052844;28;20466;-59
2021/12/01 00:24:31;;;;;;;4.40;4.00;;;;;;;;;;5051653;28;20896;-56
2021/12/01 00:26:57;;;;;;;7.57;4.73;;;;;;;;;;5051863;28;20514;-56
2021/12/01 00:29:23;;;;;;;10.70;6.50;;;;;;;;;;5052461;28;20494;-57
2021/12/01 00:31:49;;;;;;;12.70;6.07;;;;;;;;;;5052813;28;20400;-57
2021/12/01 00:34:16;;;;;;;5.33;4.80;;;;;;;;;;5053106;28;20407;-57
2021/12/01 00:36:42;;;;;;;15.47;6.97;;;;;;;;;;5053391;28;20871;-57
2021/12/01 00:39:08;;;;;;;7.60;4.30;;;;;;;;;;5053292;28;20753;-59
2021/12/01 00:41:34;;;;;;;5.90;4.27;;;;;;;;;;5051749;28;20748;-56
2021/12/01 00:44:01;;;;;;;7.57;4.43;;;;;;;;;;5053112;28;20412;-57
2021/12/01 00:49:02;;;;;;;6.70;4.90;;;;;;;;;;5053339;28;20473;-59
2021/12/01 00:51:28;;;;;;;9.87;5.70;;;;;;;;;;5053115;28;20404;-57
2021/12/01 00:53:54;;;;;;;9.47;4.57;;;;;;;;;;5053007;28;20484;-60
2021/12/01 00:56:20;;;;;;;9.70;4.87;;;;;;;;;;5052904;28;20411;-59
2021/12/01 00:58:46;;;;;;;7.13;4.60;;;;;;;;;;5051694;28;20420;-58
2021/12/01 01:01:12;;;;;;;13.10;8.17;;;;;;;;;;5053221;28;20815;-56
2021/12/01 01:03:39;;;;;;;14.13;4.50;;;;;;;;;;5052894;28;20451;-56
2021/12/01 01:06:05;;;;;;;5.50;4.90;;;;;;;;;;5051608;28;20450;-57
2021/12/01 01:08:31;;;;;;;6.97;4.57;;;;;;;;;;5052865;28;20467;-56
2021/12/01 01:11:09;;;;;;;6.37;3.80;;;;;;;;;;5052806;28;20412;-57
2021/12/01 01:16:25;;;;;;;6.03;4.03;;;;;;;;;;5052857;28;20963;-59
2021/12/01 01:18:53;;;;;;;16.40;5.40;;;;;;;;;;5052541;28;20467;-59
2021/12/01 01:21:19;;;;;;;12.30;4.40;;;;;;;;;;5052541;28;20415;-58
2021/12/01 01:23:45;;;;;;;6.57;4.00;;;;;;;;;;5052489;28;20426;-57
2021/12/01 01:26:13;;;;;;;13.60;5.80;;;;;;;;;;5052641;28;20404;-58
2021/12/01 01:28:40;;;;;;;10.47;5.33;;;;;;;;;;5052050;28;20467;-56
2021/12/01 01:31:06;;;;;;;4.43;3.70;;;;;;;;;;5050641;28;20404;-57
2021/12/01 01:33:32;;;;;;;5.93;4.47;;;;;;;;;;5050451;28;20412;-57
2021/12/01 01:35:58;;;;;;;12.17;8.10;;;;;;;;;;5050657;28;20431;-60
2021/12/01 01:38:24;;;;;;;5.10;4.70;;;;;;;;;;5050497;28;20411;-56
2021/12/01 01:40:51;;;;;;;9.17;6.87;;;;;;;;;;5050428;28;20410;-56
2021/12/01 01:43:17;;;;;;;15.43;6.63;;;;;;;;;;5053205;28;20431;-56
2021/12/01 01:45:43;;;;;;;13.17;7.27;;;;;;;;;;5056194;28;20476;-57
2021/12/01 01:48:11;;;;;;;12.43;5.87;;;;;;;;;;5054932;28;20474;-57
2021/12/01 01:50:39;;;;;;;9.03;6.30;;;;;;;;;;5055372;28;20553;-56
2021/12/01 01:53:17;;;;;;;10.73;5.40;;;;;;;;;;5055314;28;20920;-56
2021/12/01 01:55:44;;;;;;;9.37;7.40;;;;;;;;;;5056305;28;20452;-56
2021/12/01 01:58:11;;;;;;;8.03;5.97;;;;;;;;;;5054252;28;20405;-56
2021/12/01 02:00:45;;;;;;;8.40;5.70;;;;;;;;;;5056038;28;20403;-56
2021/12/01 02:03:13;;;;;;;7.23;5.97;;;;;;;;;;5056213;28;20410;-57
2021/12/01 02:05:40;;;;;;;7.60;6.90;;;;;;;;;;5056085;28;20437;-56
2021/12/01 02:08:15;;;;;;;10.63;6.40;;;;;;;;;;5056168;28;20459;-57
2021/12/01 02:10:41;;;;;;;7.50;5.40;;;;;;;;;;5054670;28;20422;-59
2021/12/01 02:13:08;;;;;;;6.87;6.33;;;;;;;;;;5054612;28;20434;-55
2021/12/01 02:15:35;;;;;;;8.77;5.23;;;;;;;;;;5055932;28;20411;-56
2021/12/01 02:18:01;;;;;;;6.37;5.67;;;;;;;;;;5055719;28;20463;-59
2021/12/01 02:20:27;;;;;;;5.37;4.83;;;;;;;;;;5055945;28;20407;-57
2021/12/01 02:22:53;;;;;;;7.00;6.33;;;;;;;;;;5055894;28;20438;-58
2021/12/01 02:25:24;;;;;;;6.30;4.93;;;;;;;;;;5055832;28;20411;-56
2021/12/01 02:27:50;;;;;;;7.03;5.43;;;;;;;;;;5055821;28;20458;-56
2021/12/01 02:30:16;;;;;;;5.27;4.87;;;;;;;;;;5055687;28;20415;-58
2021/12/01 02:32:43;;;;;;;5.70;5.17;;;;;;;;;;5055880;28;20400;-56
2021/12/01 02:35:09;;;;;;;7.43;5.23;;;;;;;;;;5055669;28;20404;-58
2021/12/01 02:37:37;;;;;;;5.53;5.10;;;;;;;;;;5055522;28;20412;-57
2021/12/01 02:40:04;;;;;;;5.70;5.20;;;;;;;;;;5055637;28;20435;-57
2021/12/01 02:42:30;;;;;;;6.13;5.67;;;;;;;;;;5055505;28;20418;-57
2021/12/01 02:44:56;;;;;;;5.90;5.40;;;;;;;;;;5055301;28;20487;-62
2021/12/01 02:47:24;;;;;;;5.47;5.00;;;;;;;;;;5055233;28;20408;-57
2021/12/01 02:49:52;;;;;;;8.10;6.23;;;;;;;;;;5055561;28;20446;-56
2021/12/01 02:52:18;;;;;;;5.17;4.87;;;;;;;;;;5054972;28;20408;-56
2021/12/01 02:54:44;;;;;;;5.83;5.23;;;;;;;;;;5054599;28;20419;-59
2021/12/01 02:57:10;;;;;;;5.13;4.87;;;;;;;;;;5055002;28;20396;-61
2021/12/01 02:59:38;;;;;;;5.40;4.90;;;;;;;;;;5053596;28;20420;-60
2021/12/01 03:02:04;;;;;;;5.60;5.20;;;;;;;;;;5054951;28;20415;-60
2021/12/01 03:04:30;;;;;;;5.57;5.13;;;;;;;;;;5055085;28;20495;-57
2021/12/01 03:06:56;;;;;;;6.00;5.60;;;;;;;;;;5055031;28;20420;-56
2021/12/01 03:09:23;;;;;;;5.00;4.70;;;;;;;;;;5055057;28;20469;-56
2021/12/01 03:11:51;;;;;;;5.27;4.97;;;;;;;;;;5054747;28;20905;-58
2021/12/01 03:14:18;;;;;;;5.10;4.80;;;;;;;;;;5054721;28;20912;-56
2021/12/01 03:16:45;;;;;;;4.90;4.60;;;;;;;;;;5054537;28;20419;-59
2021/12/01 03:19:11;;;;;;;5.47;5.17;;;;;;;;;;5054649;28;20459;-58
2021/12/01 03:21:39;;;;;;;5.87;5.40;;;;;;;;;;5053373;28;20451;-56
2021/12/01 03:24:05;;;;;;;5.37;4.90;;;;;;;;;;5054606;28;21001;-56
2021/12/01 03:26:33;;;;;;;5.27;4.83;;;;;;;;;;5054763;28;20407;-58
2021/12/01 03:28:59;;;;;;;5.27;4.93;;;;;;;;;;5054530;28;20479;-56
2021/12/01 03:31:25;;;;;;;6.07;5.57;;;;;;;;;;5054472;28;20426;-58
2021/12/01 03:33:51;;;;;;;4.57;4.33;;;;;;;;;;5054376;28;20470;-56
2021/12/01 03:36:17;;;;;;;4.40;4.10;;;;;;;;;;5052936;28;20408;-57
2021/12/01 03:38:44;;;;;;;5.30;5.00;;;;;;;;;;5053205;28;20431;-58
2021/12/01 03:41:10;;;;;;;4.90;4.60;;;;;;;;;;5054328;28;20494;-57
2021/12/01 03:43:36;;;;;;;4.20;4.00;;;;;;;;;;5053274;28;20461;-56
2021/12/01 03:46:02;;;;;;;5.10;4.80;;;;;;;;;;5054356;28;20400;-55
2021/12/01 03:48:28;;;;;;;4.67;4.47;;;;;;;;;;5054412;28;20807;-56
2021/12/01 03:50:54;;;;;;;5.10;4.80;;;;;;;;;;5052874;28;20514;-57
2021/12/01 03:53:21;;;;;;;4.57;4.27;;;;;;;;;;5054094;28;20938;-58
2021/12/01 03:55:48;;;;;;;4.20;4.00;;;;;;;;;;5054159;28;20506;-58
2021/12/01 03:58:14;;;;;;;4.33;4.13;;;;;;;;;;5053969;28;20415;-56
2021/12/01 04:00:40;;;;;;;3.57;3.43;;;;;;;;;;5054123;28;20422;-55
2021/12/01 04:03:06;;;;;;;4.03;3.93;;;;;;;;;;5052574;28;20426;-56
2021/12/01 04:05:33;;;;;;;4.67;4.40;;;;;;;;;;5051759;28;20404;-58
2021/12/01 04:08:01;;;;;;;4.30;4.10;;;;;;;;;;5052619;28;20548;-56
2021/12/01 04:10:27;;;;;;;4.47;4.17;;;;;;;;;;5054096;28;20408;-59
2021/12/01 04:12:53;;;;;;;4.60;4.33;;;;;;;;;;5053666;28;20494;-57
2021/12/01 04:15:19;;;;;;;4.83;4.53;;;;;;;;;;5053638;28;20408;-56
2021/12/01 04:17:45;;;;;;;4.87;4.50;;;;;;;;;;5053337;28;20455;-59
2021/12/01 04:20:12;;;;;;;4.47;4.27;;;;;;;;;;5053601;28;20416;-60
2021/12/01 04:22:39;;;;;;;4.20;4.10;;;;;;;;;;5053503;28;20408;-60
2021/12/01 04:25:06;;;;;;;4.80;4.50;;;;;;;;;;5053494;28;20418;-57
2021/12/01 04:27:32;;;;;;;3.93;3.73;;;;;;;;;;5053132;28;20420;-57
2021/12/01 04:29:58;;;;;;;3.97;3.83;;;;;;;;;;5053767;28;20419;-59
2021/12/01 04:32:24;;;;;;;5.20;4.90;;;;;;;;;;5053363;28;20924;-58
2021/12/01 04:34:50;;;;;;;4.17;3.97;;;;;;;;;;5053298;28;20419;-56
2021/12/01 04:37:16;;;;;;;4.70;4.40;;;;;;;;;;5053148;28;20408;-55
2021/12/01 04:39:43;;;;;;;3.67;3.57;;;;;;;;;;5053179;28;20491;-60
2021/12/01 04:42:10;;;;;;;4.23;4.03;;;;;;;;;;5053085;28;20988;-58
2021/12/01 04:44:37;;;;;;;4.10;3.80;;;;;;;;;;5053000;28;20412;-58
2021/12/01 04:47:08;;;;;;;3.93;3.73;;;;;;;;;;5052959;28;20407;-57
2021/12/01 04:49:37;;;;;;;3.70;3.50;;;;;;;;;;5052849;28;20482;-56
2021/12/01 04:52:03;;;;;;;3.70;3.60;;;;;;;;;;5052005;28;20706;-56
2021/12/01 04:54:30;;;;;;;4.17;3.90;;;;;;;;;;5053162;28;20461;-55
2021/12/01 04:56:56;;;;;;;3.27;3.17;;;;;;;;;;5051524;28;20503;-56
2021/12/01 04:59:23;;;;;;;3.30;3.20;;;;;;;;;;5052848;28;20911;-56
2021/12/01 05:01:52;;;;;;;3.90;3.70;;;;;;;;;;5052839;28;20464;-56
2021/12/01 05:04:18;;;;;;;3.93;3.73;;;;;;;;;;5051526;28;20412;-56
2021/12/01 05:06:44;;;;;;;4.10;3.90;;;;;;;;;;5052748;28;20498;-57
2021/12/01 05:09:10;;;;;;;3.30;3.20;;;;;;;;;;5052949;28;20467;-57
2021/12/01 05:11:37;;;;;;;3.60;3.30;;;;;;;;;;5051680;28;20760;-56
2021/12/01 05:14:03;;;;;;;5.20;4.70;;;;;;;;;;5052685;28;20461;-56
2021/12/01 05:16:29;;;;;;;3.13;3.03;;;;;;;;;;5052655;28;20416;-56
2021/12/01 05:18:55;;;;;;;4.80;4.60;;;;;;;;;;5051183;28;20529;-56
2021/12/01 05:21:21;;;;;;;3.50;3.40;;;;;;;;;;5052567;28;20407;-56
2021/12/01 05:23:48;;;;;;;3.30;3.20;;;;;;;;;;5052507;28;20415;-56
2021/12/01 05:26:14;;;;;;;3.33;3.23;;;;;;;;;;5052581;28;20404;-56
2021/12/01 05:28:41;;;;;;;3.40;3.30;;;;;;;;;;5052495;28;20823;-57
2021/12/01 05:31:07;;;;;;;3.50;3.30;;;;;;;;;;5052581;28;20403;-56
2021/12/01 05:33:34;;;;;;;3.00;2.90;;;;;;;;;;5052457;28;20957;-56
2021/12/01 05:36:00;;;;;;;4.53;3.40;;;;;;;;;;5052519;28;20465;-58
2021/12/01 05:38:26;;;;;;;3.33;3.23;;;;;;;;;;5052551;28;20415;-55
2021/12/01 05:40:52;;;;;;;3.17;3.07;;;;;;;;;;5052222;28;20795;-56
2021/12/01 05:43:19;;;;;;;4.30;3.67;;;;;;;;;;5052317;28;20410;-57
2021/12/01 05:45:46;;;;;;;3.37;3.27;;;;;;;;;;5052062;28;20418;-56
2021/12/01 05:48:13;;;;;;;3.20;3.00;;;;;;;;;;5052221;28;20463;-58
2021/12/01 05:50:40;;;;;;;3.67;3.57;;;;;;;;;;5052325;28;20415;-57
2021/12/01 05:53:06;;;;;;;3.30;3.20;;;;;;;;;;5052266;28;20423;-56
2021/12/01 05:55:32;;;;;;;3.30;3.20;;;;;;;;;;5052127;28;20427;-56
2021/12/01 05:57:58;;;;;;;3.50;3.40;;;;;;;;;;5052322;28;20927;-56
2021/12/01 06:00:24;;;;;;;3.23;3.13;;;;;;;;;;5052257;28;20895;-56
2021/12/01 06:02:51;;;;;;;3.20;3.10;;;;;;;;;;5051875;28;20403;-56
2021/12/01 06:05:18;;;;;;;3.10;3.00;;;;;;;;;;5050832;28;20447;-56
2021/12/01 06:07:44;;;;;;;3.20;3.10;;;;;;;;;;5052059;28;20412;-56
2021/12/01 06:10:10;;;;;;;3.00;2.90;;;;;;;;;;5051974;28;20418;-59
2021/12/01 06:12:39;;;;;;;2.90;2.80;;;;;;;;;;5052175;28;20756;-58
2021/12/01 06:15:07;;;;;;;3.33;3.20;;;;;;;;;;5052084;28;20412;-56
2021/12/01 06:17:34;;;;;;;3.00;2.90;;;;;;;;;;5051875;28;20478;-56
2021/12/01 06:20:00;;;;;;;2.90;2.80;;;;;;;;;;5052428;28;20784;-57
2021/12/01 06:22:26;;;;;;;3.50;3.30;;;;;;;;;;5051752;28;20463;-57
2021/12/01 06:24:52;;;;;;;3.20;3.10;;;;;;;;;;5051918;28;20447;-58
2021/12/01 06:27:19;;;;;;;3.17;3.07;;;;;;;;;;5051858;28;20407;-57
2021/12/01 06:29:45;;;;;;;3.27;3.17;;;;;;;;;;5054934;28;20923;-56
2021/12/01 06:32:11;;;;;;;3.27;3.17;;;;;;;;;;5055571;28;20427;-57
2021/12/01 06:34:37;;;;;;;3.20;3.10;;;;;;;;;;5055266;28;20434;-57
2021/12/01 06:37:03;;;;;;;3.40;3.30;;;;;;;;;;5055262;28;20407;-56
2021/12/01 06:39:29;;;;;;;3.40;3.30;;;;;;;;;;5055267;28;20412;-57
2021/12/01 06:41:55;;;;;;;3.40;3.20;;;;;;;;;;5055227;28;20435;-57
2021/12/01 06:44:24;;;;;;;3.40;3.30;;;;;;;;;;5054957;28;20416;-57
2021/12/01 06:46:50;;;;;;;3.17;3.07;;;;;;;;;;5055028;28;20919;-57
2021/12/01 06:49:16;;;;;;;3.50;3.40;;;;;;;;;;5055299;28;20862;-57
2021/12/01 06:51:42;;;;;;;3.50;3.30;;;;;;;;;;5055153;28;20399;-57
2021/12/01 06:54:08;;;;;;;3.20;3.10;;;;;;;;;;5054820;28;20404;-63
2021/12/01 06:56:35;;;;;;;3.40;3.30;;;;;;;;;;5054738;28;20490;-57
2021/12/01 06:59:03;;;;;;;3.53;3.40;;;;;;;;;;5053635;28;20935;-57
2021/12/01 07:01:29;;;;;;;3.17;3.07;;;;;;;;;;5055044;28;20443;-62
2021/12/01 07:03:55;;;;;;;3.57;3.47;;;;;;;;;;5054885;28;20414;-57
2021/12/01 07:06:21;;;;;;;3.50;3.30;;;;;;;;;;5054796;28;20399;-59
2021/12/01 07:08:47;;;;;;;3.40;3.30;;;;;;;;;;5053229;28;20463;-58
2021/12/01 07:11:13;;;;;;;3.63;3.53;;;;;;;;;;5054669;28;20408;-56
2021/12/01 07:13:39;;;;;;;3.20;3.10;;;;;;;;;;5054524;28;20414;-58
2021/12/01 07:16:06;;;;;;;3.70;3.60;;;;;;;;;;5054987;28;20399;-56
2021/12/01 07:18:32;;;;;;;3.33;3.23;;;;;;;;;;5054469;28;20505;-57
2021/12/01 07:20:59;;;;;;;3.53;3.20;;;;;;;;;;5054605;28;20454;-59
2021/12/01 07:23:25;;;;;;;3.40;3.20;;;;;;;;;;5054392;28;20403;-56
2021/12/01 07:25:51;;;;;;;3.50;3.40;;;;;;;;;;5054071;28;20498;-65
2021/12/01 07:28:17;;;;;;;25.47;14.40;;;;;;;;;;5054304;28;20464;-62
2021/12/01 07:30:44;;;;;;;3.27;3.17;;;;;;;;;;5054225;28;20461;-58
2021/12/01 07:33:10;;;;;;;3.63;3.43;;;;;;;;;;5054051;28;20412;-57
2021/12/01 07:35:36;;;;;;;3.50;3.40;;;;;;;;;;5054391;28;20791;-57
2021/12/01 07:38:02;;;;;;;3.40;3.30;;;;;;;;;;5053999;28;20865;-57
2021/12/01 07:40:28;;;;;;;3.50;3.40;;;;;;;;;;5054147;28;20473;-58
2021/12/01 07:42:54;;;;;;;3.73;3.63;;;;;;;;;;5053972;28;20419;-58
2021/12/01 07:45:20;;;;;;;3.40;3.30;;;;;;;;;;5054029;28;20454;-57
2021/12/01 07:47:46;;;;;;;3.37;3.27;;;;;;;;;;5054044;28;20411;-57
2021/12/01 07:50:13;;;;;;;3.70;3.50;;;;;;;;;;5054072;28;20424;-63
2021/12/01 07:52:39;;;;;;;3.50;3.40;;;;;;;;;;5053931;28;20498;-62
2021/12/01 07:55:06;;;;;;;4.10;3.80;;;;;;;;;;5053676;28;20411;-63
2021/12/01 07:57:32;;;;;;;3.80;3.70;;;;;;;;;;5054032;28;20819;-59
2021/12/01 07:59:58;;;;;;;3.50;3.40;;;;;;;;;;5053739;28;20726;-63
2021/12/01 08:02:25;;;;;;;4.17;3.90;;;;;;;;;;5053816;28;20461;-62
2021/12/01 08:04:51;;;;;;;4.33;4.10;;;;;;;;;;5053388;28;20423;-62
2021/12/01 08:07:18;;;;;;;3.80;3.33;;;;;;;;;;5053695;28;20752;-62
2021/12/01 08:09:44;;;;;;;3.73;3.63;;;;;;;;;;5053314;28;20827;-58
2021/12/01 08:12:11;;;;;;;3.60;3.50;;;;;;;;;;5052212;28;20434;-62
2021/12/01 08:14:37;;;;;;;3.60;3.50;;;;;;;;;;5053335;28;20958;-62
2021/12/01 08:17:03;;;;;;;3.73;3.60;;;;;;;;;;5053672;28;20408;-60
2021/12/01 08:19:29;;;;;;;3.70;3.50;;;;;;;;;;5053430;28;20448;-61
2021/12/01 08:21:56;;;;;;;3.57;3.47;;;;;;;;;;5053238;28;20561;-62
2021/12/01 08:24:22;;;;;;;3.20;3.10;;;;;;;;;;5053105;28;20900;-60
2021/12/01 08:26:48;;;;;;;3.77;3.67;;;;;;;;;;5053158;28;20896;-62
2021/12/01 08:29:14;;;;;;;3.60;3.50;;;;;;;;;;5052942;28;20477;-59
2021/12/01 08:31:41;;;;;;;3.90;3.80;;;;;;;;;;5059591;28;20914;-60
2021/12/01 08:36:33;;;;;;;3.63;3.53;;;;;;;;;;5052161;28;20807;-61
2021/12/01 08:38:59;;;;;;;3.83;3.73;;;;;;;;;;5066184;28;20187;-60
2021/12/01 08:41:25;;;;;;;4.10;4.00;;;;;;;;;;5070832;28;20422;-58
2021/12/01 08:43:51;;;;;;;3.70;3.60;;;;;;;;;;5071912;28;20414;-61
2021/12/01 08:46:17;;;;;;;3.73;3.57;;;;;;;;;;5068027;28;20454;-59
2021/12/01 08:48:43;;;;;;;3.70;3.60;;;;;;;;;;5051888;28;20479;-58
2021/12/01 08:51:09;;;;;;;4.20;4.10;;;;;;;;;;5051588;28;20414;-58
2021/12/01 08:53:37;;;;;;;4.10;4.00;;;;;;;;;;5051879;28;20480;-55
2021/12/01 08:56:04;;;;;;;4.63;4.43;;;;;;;;;;5051893;28;20415;-57
2021/12/01 08:58:30;;;;;;;3.80;3.70;;;;;;;;;;5052007;28;20798;-56
2021/12/01 09:00:57;;;;;;;4.17;3.97;;;;;;;;;;5052256;28;20855;-56
2021/12/01 09:03:23;;;;;;;3.83;3.63;;;;;;;;;;5055877;28;20502;-57
2021/12/01 09:05:50;;;;;;;3.90;3.80;;;;;;;;;;5071762;28;20411;-57
2021/12/01 09:08:17;;;;;;;3.67;3.50;;;;;;;;;;5071714;28;20508;-55
2021/12/01 09:10:44;;;;;;;3.90;3.70;;;;;;;;;;5071980;28;20426;-56
2021/12/01 09:13:10;;;;;;;3.63;3.53;;;;;;;;;;5071739;28;20405;-57
2021/12/01 09:15:38;;;;;;;4.00;3.80;;;;;;;;;;5054951;28;20500;-62
2021/12/01 09:18:05;;;;;;;6.10;3.80;;;;;;;;;;5049881;28;20448;-61
2021/12/01 09:20:31;;;;;;;4.00;3.70;;;;;;;;;;5051583;28;20414;-58
2021/12/01 09:22:57;;;;;;;4.20;3.80;;;;;;;;;;5051426;28;20742;-58
2021/12/01 09:25:24;;;;;;;4.20;4.10;;;;;;;;;;5051841;28;20408;-57
2021/12/01 09:27:50;;;;;;;4.00;3.90;;;;;;;;;;5051543;28;20396;-58
2021/12/01 09:30:17;;;;;;;3.80;3.60;;;;;;;;;;5051288;28;20411;-54
2021/12/01 09:32:44;;;;;;;3.50;3.40;;;;;;;;;;5051510;28;20808;-56
2021/12/01 09:35:11;;;;;;;4.00;3.90;;;;;;;;;;5051446;28;20476;-55
2021/12/01 09:37:38;;;;;;;3.77;3.67;;;;;;;;;;5056521;28;20411;-55
2021/12/01 09:40:06;;;;;;;3.80;3.60;;;;;;;;;;5071742;28;20816;-57
2021/12/01 09:42:32;;;;;;;4.00;3.90;;;;;;;;;;5071229;28;20415;-55
2021/12/01 09:44:58;;;;;;;3.30;3.20;;;;;;;;;;5071469;28;20414;-55
2021/12/01 09:47:24;;;;;;;3.57;3.43;;;;;;;;;;5071498;28;20713;-54
2021/12/01 09:49:51;;;;;;;3.40;3.30;;;;;;;;;;5054056;28;20820;-55
2021/12/01 09:52:18;;;;;;;3.47;3.37;;;;;;;;;;5051359;28;20416;-52
2021/12/01 09:54:44;;;;;;;6.40;3.80;;;;;;;;;;5049888;28;20419;-56
2021/12/01 09:57:13;;;;;;;3.40;3.30;;;;;;;;;;5051158;28;20404;-59
2021/12/01 09:59:39;;;;;;;3.87;3.67;;;;;;;;;;5051060;28;20461;-57
2021/12/01 10:02:05;;;;;;;3.40;3.30;;;;;;;;;;5050951;28;20482;-55
2021/12/01 10:04:31;;;;;;;3.60;3.50;;;;;;;;;;5053822;28;20764;-56
2021/12/01 10:07:17;;;;;;;3.40;3.30;;;;;;;;;;5053258;28;20411;-55
2021/12/01 10:09:48;;;;;;;3.40;3.30;;;;;;;;;;5054526;28;20471;-57
2021/12/01 10:12:15;;;;;;;4.10;3.20;;;;;;;;;;5052922;28;20443;-53
2021/12/01 10:14:45;;;;;;;3.10;3.00;;;;;;;;;;5054563;28;20450;-56
2021/12/01 10:17:11;;;;;;;3.80;3.70;;;;;;;;;;5054357;28;20457;-56
2021/12/01 10:19:37;;;;;;;3.50;3.40;;;;;;;;;;5053903;28;20478;-60
2021/12/01 10:22:08;;;;;;;3.40;3.30;;;;;;;;;;5053472;28;20502;-57
2021/12/01 10:24:35;;;;;;;3.30;3.20;;;;;;;;;;5054477;28;20411;-61
2021/12/01 10:27:04;;;;;;;3.60;3.50;;;;;;;;;;5054569;28;20414;-54
2021/12/01 10:29:30;;;;;;;3.37;3.27;;;;;;;;;;5054729;28;20466;-56
2021/12/01 10:31:59;;;;;;;5.60;3.60;;;;;;;;;;5054328;28;20457;-52
2021/12/01 10:34:30;;;;;;;3.73;3.63;;;;;;;;;;5054260;28;20404;-61
2021/12/01 10:37:15;;;;;;;3.77;3.57;;;;;;;;;;5086690;28;20418;-57
2021/12/01 10:39:43;;;;;;;3.33;3.23;;;;;;;;;;5034096;28;20478;-63
2021/12/01 10:42:14;;;;;;;3.67;3.47;;;;;;;;;;5034919;28;20597;-55
2021/12/01 10:44:54;;;;;;;3.90;3.80;;;;;;;;;;5033039;28;20417;-52
2021/12/01 10:47:20;;;;;;;3.20;3.10;;;;;;;;;;5034371;28;20909;-55
2021/12/01 10:49:47;;;;;;;3.80;3.70;;;;;;;;;;5034141;28;20479;-56
2021/12/01 10:52:30;;;;;;;3.60;3.50;;;;;;;;;;5033922;28;20412;-62
2021/12/01 10:55:22;;;;;;;3.60;3.50;;;;;;;;;;5034245;28;20404;-55
2021/12/01 10:57:51;;;;;;;3.10;3.00;;;;;;;;;;5031265;28;20493;-55
2021/12/01 11:00:22;;;;;;;3.83;3.67;;;;;;;;;;5034214;28;20400;-54
2021/12/01 11:02:49;;;;;;;3.60;3.50;;;;;;;;;;5034172;28;20413;-66
2021/12/01 11:05:28;;;;;;;3.70;3.60;;;;;;;;;;5034000;28;20901;-60
2021/12/01 11:07:54;;;;;;;3.70;3.60;;;;;;;;;;5032753;28;20476;-55
2021/12/01 11:10:24;;;;;;;3.30;3.20;;;;;;;;;;5034104;28;20456;-52
2021/12/01 11:12:58;;;;;;;4.20;3.90;;;;;;;;;;5033939;28;20405;-52
2021/12/01 11:15:26;;;;;;;3.50;3.40;;;;;;;;;;5033625;28;20416;-51
2021/12/01 11:17:52;;;;;;;3.80;3.60;;;;;;;;;;5033667;28;20826;-52
2021/12/01 11:20:37;;;;;;;4.50;3.50;;;;;;;;;;5033728;28;20937;-51
2021/12/01 11:23:07;;;;;;;3.80;3.57;;;;;;;;;;5043211;28;20420;-52
2021/12/01 11:25:35;;;;;;;3.60;3.50;;;;;;;;;;5052297;28;20412;-53
2021/12/01 11:28:02;;;;;;;3.73;3.40;;;;;;;;;;5053846;28;20465;-52
2021/12/01 11:30:28;;;;;;;3.57;3.30;;;;;;;;;;5053447;28;20431;-56
2021/12/01 11:32:54;;;;;;;3.73;3.53;;;;;;;;;;5053563;28;20407;-62
2021/12/01 11:35:20;;;;;;;3.33;3.23;;;;;;;;;;5052467;28;20917;-52
2021/12/01 11:37:54;;;;;;;3.70;3.60;;;;;;;;;;5059673;28;20467;-54
2021/12/01 11:40:21;;;;;;;7.13;3.33;;;;;;;;;;5073426;28;20445;-54
2021/12/01 11:42:47;;;;;;;3.23;3.13;;;;;;;;;;5073344;28;20509;-52
2021/12/01 11:45:13;;;;;;;3.73;3.60;;;;;;;;;;5073352;28;20423;-57
2021/12/01 11:47:46;;;;;;;3.73;3.63;;;;;;;;;;5073096;28;20410;-52
2021/12/01 11:50:13;;;;;;;3.20;3.10;;;;;;;;;;5072910;28;21033;-53
2021/12/01 11:52:53;;;;;;;3.47;3.27;;;;;;;;;;5073174;28;20464;-54
2021/12/01 11:55:39;;;;;;;3.50;3.40;;;;;;;;;;5072973;28;20417;-53
2021/12/01 11:58:05;;;;;;;3.60;3.50;;;;;;;;;;5072980;28;20449;-54
2021/12/01 12:00:44;;;;;;;3.60;3.40;;;;;;;;;;5072729;28;20981;-52
2021/12/01 12:03:24;;;;;;;3.67;3.50;;;;;;;;;;5072929;28;20797;-58
2021/12/01 12:06:10;;;;;;;3.50;3.40;;;;;;;;;;5073100;28;20406;-55
2021/12/01 12:08:55;;;;;;;3.20;3.10;;;;;;;;;;5072684;28;20836;-55
2021/12/01 12:11:50;;;;;;;3.50;3.30;;;;;;;;;;5072413;28;20402;-55
2021/12/01 12:14:18;;;;;;;3.50;3.20;;;;;;;;;;5063728;28;20450;-56
2021/12/01 12:17:04;;;;;;;3.50;3.40;;;;;;;;;;5072519;28;20425;-55
2021/12/01 12:19:50;;;;;;;3.40;3.30;;;;;;;;;;5072241;28;20450;-56
2021/12/01 12:22:19;;;;;;;3.80;3.60;;;;;;;;;;5069035;28;20418;-53
2021/12/01 12:24:51;;;;;;;3.73;3.63;;;;;;;;;;5052411;28;20416;-55
2021/12/01 12:27:32;;;;;;;3.30;3.20;;;;;;;;;;5051643;28;20407;-52
2021/12/01 12:29:59;;;;;;;3.27;3.17;;;;;;;;;;5052095;28;20478;-54
2021/12/01 12:32:29;;;;;;;3.07;2.97;;;;;;;;;;5052304;28;20408;-56
2021/12/01 12:35:01;;;;;;;3.13;3.03;;;;;;;;;;5052096;28;20411;-53
2021/12/01 12:37:29;;;;;;;2.87;2.77;;;;;;;;;;5056206;28;20754;-53
2021/12/01 12:39:56;;;;;;;3.13;3.03;;;;;;;;;;5072107;28;20418;-53
2021/12/01 12:42:22;;;;;;;3.13;3.03;;;;;;;;;;5070581;28;20422;-55
2021/12/01 12:44:48;;;;;;;3.00;2.90;;;;;;;;;;5072074;28;20414;-55
2021/12/01 12:47:14;;;;;;;3.20;3.10;;;;;;;;;;5072035;28;20915;-56
2021/12/01 12:49:46;;;;;;;3.23;3.10;;;;;;;;;;5072040;28;20543;-56
2021/12/01 12:52:27;;;;;;;2.90;2.80;;;;;;;;;;5071986;28;20435;-59
2021/12/01 12:54:54;;;;;;;3.03;2.93;;;;;;;;;;5071993;28;20489;-59
2021/12/01 12:57:20;;;;;;;3.00;2.80;;;;;;;;;;5071993;28;20407;-58
2021/12/01 12:59:46;;;;;;;6.47;3.00;;;;;;;;;;5071857;28;20413;-56
2021/12/01 13:02:15;;;;;;;3.30;3.20;;;;;;;;;;5070521;28;20425;-56
2021/12/01 13:04:41;;;;;;;2.90;2.80;;;;;;;;;;5071855;28;20911;-58
2021/12/01 13:07:26;;;;;;;3.30;3.20;;;;;;;;;;5071902;28;20476;-57
2021/12/01 13:10:10;;;;;;;3.10;3.00;;;;;;;;;;5070839;28;20925;-56
2021/12/01 13:12:51;;;;;;;2.83;2.73;;;;;;;;;;5070982;28;20448;-53
2021/12/01 13:15:22;;;;;;;2.90;2.80;;;;;;;;;;5071808;28;20907;-57
2021/12/01 13:17:52;;;;;;;3.30;3.20;;;;;;;;;;5071626;28;20533;-55
2021/12/01 13:20:19;;;;;;;2.97;2.87;;;;;;;;;;5071656;28;20763;-58
2021/12/01 13:23:01;;;;;;;3.10;3.00;;;;;;;;;;5064144;28;20408;-59
2021/12/01 13:25:27;;;;;;;2.90;2.80;;;;;;;;;;5051605;28;20415;-53
2021/12/01 13:27:53;;;;;;;2.77;2.67;;;;;;;;;;5051333;28;20432;-56
2021/12/01 13:30:20;;;;;;;3.07;2.97;;;;;;;;;;5050242;28;20415;-56
2021/12/01 13:32:46;;;;;;;2.93;2.83;;;;;;;;;;5051821;28;20900;-58
2021/12/01 13:35:12;;;;;;;2.90;2.80;;;;;;;;;;5051643;28;20416;-54
2021/12/01 13:37:38;;;;;;;2.80;2.80;;;;;;;;;;5058561;28;20764;-56
2021/12/01 13:40:08;;;;;;;3.00;2.90;;;;;;;;;;5075609;28;20415;-54
2021/12/01 13:42:34;;;;;;;2.90;2.80;;;;;;;;;;5075606;28;20418;-53
2021/12/01 13:45:00;;;;;;;3.17;2.90;;;;;;;;;;5075731;28;20962;-56
2021/12/01 13:47:28;;;;;;;2.90;2.80;;;;;;;;;;5075812;28;20456;-55
2021/12/01 13:49:59;;;;;;;2.93;2.80;;;;;;;;;;5075587;28;20473;-55
2021/12/01 13:52:25;;;;;;;3.23;3.13;;;;;;;;;;5075452;28;20959;-55
2021/12/01 13:54:51;;;;;;;3.00;2.90;;;;;;;;;;5075684;28;20406;-52
2021/12/01 13:57:18;;;;;;;3.40;3.20;;;;;;;;;;5075227;28;20398;-53
2021/12/01 13:59:48;;;;;;;2.70;2.60;;;;;;;;;;5075262;28;20406;-57
2021/12/01 14:02:22;;;;;;;3.20;3.10;;;;;;;;;;5074027;28;20506;-57
2021/12/01 14:04:49;;;;;;;2.90;2.80;;;;;;;;;;5075111;28;20407;-54
2021/12/01 14:07:15;;;;;;;2.80;2.80;;;;;;;;;;5075069;28;20414;-52
2021/12/01 14:10:01;;;;;;;2.93;2.83;;;;;;;;;;5075217;28;20470;-57
2021/12/01 14:12:34;;;;;;;3.17;3.07;;;;;;;;;;5075127;28;20471;-60
2021/12/01 14:15:00;;;;;;;3.10;3.00;;;;;;;;;;5074969;28;20836;-54
2021/12/01 14:17:26;;;;;;;2.97;2.87;;;;;;;;;;5074941;28;20418;-53
2021/12/01 14:19:56;;;;;;;2.97;2.87;;;;;;;;;;5074939;28;20422;-54
2021/12/01 14:22:22;;;;;;;3.17;2.97;;;;;;;;;;5070771;28;20415;-57
2021/12/01 14:24:56;;;;;;;3.00;2.90;;;;;;;;;;5054971;28;20757;-54
2021/12/01 14:27:27;;;;;;;2.93;2.83;;;;;;;;;;5055100;28;20421;-56
2021/12/01 14:29:56;;;;;;;2.77;2.77;;;;;;;;;;5054783;28;21116;-54
2021/12/01 14:32:26;;;;;;;2.73;2.73;;;;;;;;;;5054692;28;20411;-54
2021/12/01 14:34:52;;;;;;;3.40;3.27;;;;;;;;;;5054652;28;20416;-54
2021/12/01 14:37:18;;;;;;;3.00;2.90;;;;;;;;;;5056993;28;20916;-55
2021/12/01 14:39:45;;;;;;;2.97;2.87;;;;;;;;;;5074532;28;20407;-53
2021/12/01 14:42:11;;;;;;;3.10;3.00;;;;;;;;;;5074655;28;20511;-55
2021/12/01 14:44:39;;;;;;;3.20;3.10;;;;;;;;;;5056568;28;20447;-53
2021/12/01 14:47:06;;;;;;;2.80;2.70;;;;;;;;;;5053175;28;20459;-54
2021/12/01 14:49:52;;;;;;;3.10;3.07;;;;;;;;;;5053235;28;20995;-53
2021/12/01 14:52:26;;;;;;;2.90;2.80;;;;;;;;;;5054286;28;20418;-53
2021/12/01 14:55:04;;;;;;;3.00;2.90;;;;;;;;;;5053712;28;20419;-55